createdAt,value
2023-04-30T00:02:22.268Z,1003.89
2023-04-30T00:07:26.372Z,1003.81
2023-04-30T00:12:30.556Z,1003.86
2023-04-30T00:17:34.768Z,1003.82
2023-04-30T00:22:38.852Z,1003.85
2023-04-30T00:27:43.049Z,1003.92
2023-04-30T00:32:45.377Z,1003.97
2023-04-30T00:37:49.439Z,1003.93
2023-04-30T00:42:53.630Z,1003.97
2023-04-30T00:47:55.969Z,1003.96
2023-04-30T00:53:00.058Z,1003.87
2023-04-30T01:03:08.601Z,1003.93
2023-04-30T01:08:12.570Z,1003.97
2023-04-30T01:13:16.686Z,1003.93
2023-04-30T01:18:21.032Z,1003.75
2023-04-30T01:23:25.063Z,1003.62
2023-04-30T01:28:29.206Z,1003.63
2023-04-30T01:33:33.512Z,1003.52
2023-04-30T01:38:37.556Z,1003.51
2023-04-30T01:43:41.727Z,1003.54
2023-04-30T01:48:45.877Z,1003.48
2023-04-30T01:53:50.039Z,1003.32
2023-04-30T01:58:54.181Z,1003.18
2023-04-30T02:03:58.377Z,1003.16
2023-04-30T02:09:02.629Z,1003.13
2023-04-30T02:14:06.762Z,1003.11
2023-04-30T02:19:10.810Z,1003.05
2023-04-30T02:24:14.999Z,1002.97
2023-04-30T02:29:19.174Z,1003.02
2023-04-30T02:34:23.336Z,1002.95
2023-04-30T02:39:25.585Z,1002.92
2023-04-30T02:44:29.790Z,1002.99
2023-04-30T02:49:32.058Z,1002.93
2023-04-30T02:54:38.202Z,1002.80
2023-04-30T02:59:40.391Z,1002.67
2023-04-30T03:04:44.517Z,1002.62
2023-04-30T03:09:48.769Z,1002.58
2023-04-30T03:14:52.859Z,1002.44
2023-04-30T03:19:57.387Z,1002.35
2023-04-30T03:25:01.189Z,1002.28
2023-04-30T03:30:05.365Z,1002.32
2023-04-30T03:35:09.555Z,1002.17
2023-04-30T03:40:13.673Z,1002.11
2023-04-30T03:45:17.854Z,1001.97
2023-04-30T03:50:22.009Z,1001.91
2023-04-30T03:55:26.170Z,1001.89
2023-04-30T04:00:30.339Z,1001.84
2023-04-30T04:05:34.501Z,1001.81
2023-04-30T04:10:38.688Z,1001.82
2023-04-30T04:15:42.897Z,1001.83
2023-04-30T04:20:46.989Z,1001.87
2023-04-30T04:25:51.170Z,1001.90
2023-04-30T04:30:55.315Z,1001.77
2023-04-30T04:35:57.631Z,1001.58
2023-04-30T04:41:01.791Z,1001.59
2023-04-30T04:46:04.031Z,1001.54
2023-04-30T04:51:08.175Z,1001.42
2023-04-30T04:56:12.369Z,1001.41
2023-04-30T05:01:16.544Z,1001.29
2023-04-30T05:06:20.685Z,1001.21
2023-04-30T05:11:24.853Z,1001.17
2023-04-30T05:16:29.067Z,1001.08
2023-04-30T05:21:33.172Z,1000.94
2023-04-30T05:26:37.460Z,1000.64
2023-04-30T05:31:41.553Z,1000.40
2023-04-30T05:36:45.702Z,1000.27
2023-04-30T05:41:51.090Z,1000.08
2023-04-30T05:46:54.021Z,1000.06
2023-04-30T05:51:58.138Z,999.89
2023-04-30T05:57:02.343Z,999.75
2023-04-30T06:02:06.554Z,999.48
2023-04-30T06:07:10.648Z,999.43
2023-04-30T06:12:14.788Z,999.29
2023-04-30T06:17:18.999Z,999.03
2023-04-30T06:22:23.129Z,998.93
2023-04-30T06:27:27.286Z,998.82
2023-04-30T06:37:33.756Z,998.62
2023-04-30T06:42:36.047Z,998.57
2023-04-30T06:47:40.224Z,998.43
2023-04-30T06:57:46.592Z,997.97
2023-04-30T07:02:48.949Z,998.01
2023-04-30T07:07:53.051Z,998.01
2023-04-30T07:12:57.173Z,998.23
2023-04-30T07:18:01.426Z,998.67
2023-04-30T07:23:05.513Z,999.22
2023-04-30T07:28:09.701Z,999.90
2023-04-30T07:33:13.897Z,1000.67
2023-04-30T07:38:17.996Z,1001.23
2023-04-30T07:43:22.210Z,1001.51
2023-04-30T07:48:26.324Z,1001.70
2023-04-30T07:53:30.524Z,1001.90
2023-04-30T07:58:34.647Z,1001.89
2023-04-30T08:03:38.892Z,1002.11
2023-04-30T08:08:42.976Z,1002.21
2023-04-30T08:13:47.121Z,1002.19
2023-04-30T08:18:51.330Z,1002.27
2023-04-30T08:23:55.458Z,1002.00
2023-04-30T08:28:59.663Z,1001.69
2023-04-30T08:34:03.770Z,1001.57
2023-04-30T08:39:07.967Z,1001.29
2023-04-30T08:44:12.085Z,1001.26
2023-04-30T08:49:14.391Z,1001.15
2023-04-30T08:54:18.549Z,1001.05
2023-04-30T08:59:22.687Z,1000.75
2023-04-30T09:04:24.958Z,1000.89
2023-04-30T09:09:29.141Z,1000.81
2023-04-30T09:14:33.276Z,1000.87
2023-04-30T09:19:37.475Z,1000.86
2023-04-30T09:24:41.596Z,1000.64
2023-04-30T09:29:45.774Z,1000.61
2023-04-30T09:34:49.919Z,1000.49
2023-04-30T09:39:54.274Z,1000.56
2023-04-30T09:44:58.226Z,1000.58
2023-04-30T09:50:02.388Z,1000.42
2023-04-30T09:55:06.572Z,1000.40
2023-04-30T10:00:10.717Z,1000.33
2023-04-30T10:05:14.900Z,1000.21
2023-04-30T10:10:19.048Z,1000.16
2023-04-30T10:15:23.199Z,1000.23
2023-04-30T10:20:27.405Z,1000.10
2023-04-30T10:25:31.533Z,1000.03
2023-04-30T10:30:35.666Z,1000.07
2023-04-30T10:35:39.849Z,999.97
2023-04-30T10:40:44.084Z,999.91
2023-04-30T10:45:48.208Z,999.92
2023-04-30T10:50:50.410Z,999.79
2023-04-30T10:55:54.619Z,999.74
2023-04-30T11:00:58.785Z,999.89
2023-04-30T11:06:01.058Z,999.77
2023-04-30T11:11:05.202Z,999.92
2023-04-30T11:16:09.395Z,999.83
2023-04-30T11:21:13.484Z,999.77
2023-04-30T11:26:17.674Z,1001.23
2023-04-30T11:31:21.846Z,1004.82
2023-04-30T11:36:25.981Z,1005.51
2023-04-30T11:41:30.152Z,1005.86
2023-04-30T11:46:34.338Z,1006.20
2023-04-30T11:51:38.452Z,1006.60
2023-04-30T11:56:42.632Z,1008.71
2023-04-30T12:01:46.843Z,1008.80
2023-04-30T12:06:50.948Z,1009.10
2023-04-30T12:11:55.079Z,1009.82
2023-04-30T12:16:59.269Z,1010.26
2023-04-30T12:22:03.409Z,1010.25
2023-04-30T12:27:07.597Z,1011.05
2023-04-30T12:32:11.835Z,1011.25
2023-04-30T12:37:15.881Z,1011.42
2023-04-30T12:42:20.033Z,1011.30
2023-04-30T12:47:24.270Z,1011.39
2023-04-30T12:52:26.509Z,1011.52
2023-04-30T12:57:30.634Z,1011.43
2023-04-30T13:02:32.985Z,1011.54
2023-04-30T13:07:37.116Z,1011.63
2023-04-30T13:12:41.237Z,1011.44
2023-04-30T13:17:45.463Z,1011.60
2023-04-30T13:22:49.549Z,1011.44
2023-04-30T13:27:53.726Z,1011.26
2023-04-30T13:32:57.947Z,1011.44
2023-04-30T13:38:02.047Z,1011.43
2023-04-30T13:43:06.193Z,1011.46
2023-04-30T13:48:10.477Z,1011.27
2023-04-30T13:53:14.492Z,1011.10
2023-04-30T13:58:18.655Z,1011.22
2023-04-30T14:03:23.128Z,1011.21
2023-04-30T14:08:26.989Z,1011.19
2023-04-30T14:13:31.155Z,1010.98
2023-04-30T14:18:35.309Z,1011.06
2023-04-30T14:23:39.459Z,1011.06
2023-04-30T14:28:43.613Z,1011.13
2023-04-30T14:33:47.778Z,1011.01
2023-04-30T14:38:51.932Z,1011.02
2023-04-30T14:43:56.071Z,1010.85
2023-04-30T14:48:58.368Z,1011.05
2023-04-30T14:54:02.550Z,1010.81
2023-04-30T14:59:06.695Z,1010.71
2023-04-30T15:04:10.835Z,1010.79
2023-04-30T15:09:15.018Z,1010.73
2023-04-30T15:14:19.192Z,1010.71
2023-04-30T15:19:23.331Z,1010.77
2023-04-30T15:24:27.493Z,1010.72
2023-04-30T15:29:31.647Z,1010.67
2023-04-30T15:34:35.826Z,1010.52
2023-04-30T15:39:39.960Z,1010.51
2023-04-30T15:44:44.090Z,1010.46
2023-04-30T15:49:48.270Z,1010.36
2023-04-30T15:54:52.448Z,1010.40
2023-04-30T15:59:57.142Z,1010.41
2023-04-30T16:05:00.803Z,1010.25
2023-04-30T16:10:04.920Z,1010.30
2023-04-30T16:15:09.047Z,1010.37
2023-04-30T16:20:13.259Z,1010.25
2023-04-30T16:25:15.533Z,1010.20
2023-04-30T16:30:19.672Z,1010.16
2023-04-30T16:35:21.951Z,1010.14
2023-04-30T16:40:26.079Z,1009.99
2023-04-30T16:45:28.385Z,1010.00
2023-04-30T16:50:32.495Z,1009.96
2023-04-30T16:55:36.673Z,1010.01
2023-04-30T17:00:40.829Z,1009.98
2023-04-30T17:05:44.988Z,1009.84
2023-04-30T17:10:49.181Z,1009.82
2023-04-30T17:15:53.368Z,1009.79
2023-04-30T17:20:57.461Z,1009.65
2023-04-30T17:26:01.652Z,1009.62
2023-04-30T17:31:05.811Z,1009.56
2023-04-30T17:36:09.925Z,1009.59
2023-04-30T17:41:14.096Z,1009.54
2023-04-30T17:46:18.276Z,1009.44
2023-04-30T17:51:22.429Z,1009.53
2023-04-30T17:56:26.622Z,1009.44
2023-04-30T18:01:30.791Z,1009.42
2023-04-30T18:06:34.904Z,1009.37
2023-04-30T18:11:39.310Z,1009.38
2023-04-30T18:16:43.275Z,1009.33
2023-04-30T18:21:47.412Z,1009.16
2023-04-30T18:26:51.566Z,1009.13
2023-04-30T18:31:53.925Z,1009.09
2023-04-30T18:36:58.009Z,1009.05
2023-04-30T18:42:00.231Z,1009.13
2023-04-30T18:47:04.423Z,1008.92
2023-04-30T18:57:12.730Z,1008.72
2023-04-30T19:02:16.945Z,1008.70
2023-04-30T19:07:21.074Z,1008.48
2023-04-30T19:12:25.251Z,1008.26
2023-04-30T19:17:29.403Z,1007.51
2023-04-30T19:27:37.704Z,1006.55
2023-04-30T19:32:41.919Z,1005.06
2023-04-30T19:37:46.028Z,1003.33
2023-04-30T19:42:50.177Z,1001.19
2023-04-30T19:47:52.499Z,998.36
2023-04-30T19:53:03.635Z,996.89
2023-04-30T19:58:14.782Z,996.25
2023-04-30T20:03:26.015Z,996.22
2023-04-30T20:08:37.133Z,996.15
2023-04-30T20:13:48.285Z,996.36
2023-04-30T20:18:57.554Z,996.41
2023-04-30T20:24:01.749Z,996.52
2023-04-30T20:29:05.892Z,996.55
2023-04-30T20:34:10.087Z,996.75
2023-04-30T20:39:14.232Z,997.04
2023-04-30T20:44:18.350Z,997.30
2023-04-30T20:49:22.536Z,997.51
2023-04-30T20:54:26.694Z,997.53
2023-04-30T20:59:30.822Z,997.83
2023-04-30T21:04:35.120Z,997.83
2023-04-30T21:09:39.179Z,998.10
2023-04-30T21:14:43.332Z,998.43
2023-04-30T21:19:47.516Z,998.53
2023-04-30T21:24:51.678Z,998.67
2023-04-30T21:29:56.113Z,998.59
2023-04-30T21:34:59.997Z,998.62
2023-04-30T21:40:04.149Z,998.64
2023-04-30T21:45:08.304Z,998.59
2023-04-30T21:50:12.472Z,998.54
2023-04-30T21:55:16.635Z,998.46
2023-04-30T22:00:20.808Z,998.52
2023-04-30T22:05:23.071Z,998.45
2023-04-30T22:10:27.202Z,998.40
2023-04-30T22:15:40.730Z,998.34
2023-04-30T22:20:33.633Z,998.31
2023-04-30T22:25:37.841Z,998.44
2023-04-30T22:30:41.982Z,998.48
2023-04-30T22:35:46.155Z,998.58
2023-04-30T22:40:50.305Z,998.59
2023-04-30T22:45:54.484Z,998.47
2023-04-30T22:50:58.658Z,998.54
2023-04-30T22:56:02.785Z,998.54
2023-04-30T23:01:06.988Z,998.50
2023-04-30T23:06:11.168Z,998.42
2023-04-30T23:11:15.245Z,998.37
2023-04-30T23:16:19.480Z,998.31
2023-04-30T23:21:23.614Z,998.33
2023-04-30T23:26:27.740Z,998.25
2023-04-30T23:31:31.961Z,998.26
2023-04-30T23:36:36.090Z,998.24
2023-04-30T23:41:40.249Z,998.11
2023-04-30T23:46:44.437Z,997.97
2023-04-30T23:51:48.571Z,997.86
2023-04-30T23:56:52.819Z,997.72
